Time;durP1;ratioP1;P1;durP2;ratioP2;P2;SDS_P1;SDS_P2;PMS_P1;PMS_P2;Temp;Humidity;BMP_temperature;BMP_pressure;BME280_temperature;BME280_humidity;BME280_pressure;Samples;Min_cycle;Max_cycle;Signal;HPM_P1;HPM_P2
2021/10/13 00:00:38;;;;;;;0.63;0.63;;;;;;;8.68;79.09;95835.75;5093555;28;20085;-61
2021/10/13 00:03:03;;;;;;;0.50;0.50;;;;;;;8.64;79.47;95837.63;5093321;28;20040;-60
2021/10/13 00:05:29;;;;;;;0.60;0.60;;;;;;;8.65;78.90;95823.72;5093632;28;20081;-61
2021/10/13 00:07:54;;;;;;;0.60;0.60;;;;;;;8.64;79.96;95832.44;5093470;28;20031;-61
2021/10/13 00:10:20;;;;;;;0.60;0.60;;;;;;;8.53;79.61;95835.47;5092484;28;20424;-60
2021/10/13 00:12:45;;;;;;;0.70;0.70;;;;;;;8.62;80.14;95833.41;5093388;28;20021;-61
2021/10/13 00:15:12;;;;;;;1.65;0.80;;;;;;;8.67;79.28;95826.25;5093199;28;20389;-60
2021/10/13 00:17:38;;;;;;;0.70;0.70;;;;;;;8.69;79.97;95827.03;5093296;28;20069;-60
2021/10/13 00:20:05;;;;;;;0.70;0.70;;;;;;;8.68;80.16;95818.38;5093203;28;20020;-62
2021/10/13 00:22:43;;;;;;;0.95;0.93;;;;;;;8.70;77.97;95826.13;5093251;28;20154;-61
2021/10/13 00:25:10;;;;;;;0.80;0.80;;;;;;;8.72;78.27;95816.47;5093221;28;20034;-61
2021/10/13 00:27:35;;;;;;;0.95;0.90;;;;;;;8.71;79.78;95813.03;5093223;28;20033;-61
2021/10/13 00:30:01;;;;;;;1.02;0.77;;;;;;;8.68;77.29;95827.94;5093067;28;20027;-60
2021/10/13 00:32:28;;;;;;;0.82;0.80;;;;;;;8.66;78.06;95832.38;5093092;28;20020;-62
2021/10/13 00:34:54;;;;;;;0.90;0.77;;;;;;;8.58;78.52;95827.50;5093134;28;20393;-61
2021/10/13 00:37:20;;;;;;;0.80;0.80;;;;;;;8.60;78.46;95828.25;5093165;28;20374;-61
2021/10/13 00:39:46;;;;;;;0.93;0.93;;;;;;;8.55;78.70;95833.66;5093132;28;20462;-62
2021/10/13 00:42:12;;;;;;;1.60;1.00;;;;;;;8.52;79.87;95828.53;5092918;28;20054;-61
2021/10/13 00:44:38;;;;;;;0.90;0.85;;;;;;;8.53;79.45;95824.19;5092905;28;20095;-61
2021/10/13 00:47:03;;;;;;;1.30;1.20;;;;;;;8.55;78.79;95822.41;5074952;28;20162;-61
2021/10/13 00:49:31;;;;;;;1.52;1.40;;;;;;;8.51;80.32;95826.00;5092958;28;20073;-61
2021/10/13 00:51:57;;;;;;;1.15;1.05;;;;;;;8.55;77.61;95818.00;5092966;28;20031;-61
2021/10/13 00:54:25;;;;;;;1.25;1.15;;;;;;;8.47;79.63;95822.69;5092953;28;20020;-61
2021/10/13 00:56:51;;;;;;;1.35;1.25;;;;;;;8.45;79.39;95825.34;5092846;28;20030;-61
2021/10/13 00:59:16;;;;;;;2.55;1.40;;;;;;;8.46;78.68;95828.81;5092914;28;20020;-61
2021/10/13 01:02:17;;;;;;;1.27;0.95;;;;;;;8.34;78.09;95825.78;5092853;28;20012;-61
2021/10/13 01:05:13;;;;;;;2.35;1.23;;;;;;;8.30;80.04;95820.75;5047936;28;20398;-61
2021/10/13 01:07:55;;;;;;;1.30;1.20;;;;;;;8.31;78.52;95840.69;5092795;28;20071;-61
2021/10/13 01:10:35;;;;;;;0.82;0.82;;;;;;;8.36;78.27;95838.75;5092877;28;20032;-61
2021/10/13 01:13:15;;;;;;;1.02;0.98;;;;;;;8.41;77.90;95843.78;5092838;28;20093;-61
2021/10/13 01:16:03;;;;;;;1.02;0.95;;;;;;;8.38;77.06;95852.56;5092714;28;20068;-62
2021/10/13 01:18:31;;;;;;;0.80;0.80;;;;;;;8.37;76.83;95852.63;5092831;28;20061;-61
2021/10/13 01:21:13;;;;;;;1.40;0.80;;;;;;;8.28;78.17;95853.84;5093947;28;20032;-60
2021/10/13 01:23:54;;;;;;;0.90;0.88;;;;;;;8.37;77.01;95847.41;5096509;28;20111;-61
2021/10/13 01:26:46;;;;;;;0.73;0.73;;;;;;;8.39;77.32;95853.41;5096539;28;20040;-61
2021/10/13 01:29:18;;;;;;;3.75;3.30;;;;;;;8.35;77.39;95847.47;5096478;28;20032;-60
2021/10/13 01:31:50;;;;;;;1.23;1.13;;;;;;;8.43;76.65;95848.00;5096359;28;20390;-61
2021/10/13 01:34:24;;;;;;;1.40;1.30;;;;;;;8.49;77.48;95848.69;5096312;28;20101;-61
2021/10/13 01:36:58;;;;;;;2.08;0.98;;;;;;;8.47;77.28;95852.22;5096165;28;20073;-61
2021/10/13 01:39:25;;;;;;;0.90;0.90;;;;;;;8.43;76.79;95845.41;5096168;28;20078;-61
2021/10/13 01:41:52;;;;;;;1.90;0.98;;;;;;;8.47;77.03;95849.59;5096095;28;20020;-61
2021/10/13 01:44:20;;;;;;;2.70;1.00;;;;;;;8.40;76.36;95852.50;5096035;28;20048;-61
2021/10/13 01:46:47;;;;;;;1.30;1.10;;;;;;;8.41;76.64;95856.81;5096072;28;20024;-60
2021/10/13 01:49:14;;;;;;;0.80;0.80;;;;;;;8.42;76.09;95848.06;5095949;28;20078;-61
2021/10/13 01:51:45;;;;;;;0.70;0.70;;;;;;;8.39;76.90;95854.25;5095901;28;20425;-61
2021/10/13 01:54:12;;;;;;;1.10;1.00;;;;;;;8.42;76.78;95850.69;5095927;28;20482;-60
2021/10/13 01:56:39;;;;;;;1.00;0.95;;;;;;;8.45;76.18;95847.94;5095664;28;20501;-61
2021/10/13 01:59:09;;;;;;;1.33;0.90;;;;;;;8.48;76.02;95850.44;5095855;28;20016;-60
2021/10/13 02:01:38;;;;;;;0.80;0.80;;;;;;;8.50;76.08;95856.44;5095863;28;20020;-61
2021/10/13 02:04:07;;;;;;;0.60;0.60;;;;;;;8.51;75.69;95839.88;5095638;28;20040;-60
2021/10/13 02:06:36;;;;;;;1.43;0.90;;;;;;;8.55;75.22;95848.47;5095771;28;20031;-62
2021/10/13 02:09:02;;;;;;;0.80;0.70;;;;;;;8.59;75.28;95843.06;5095603;28;20472;-61
2021/10/13 02:11:30;;;;;;;0.77;0.77;;;;;;;8.63;76.32;95845.53;5095528;28;20016;-60
2021/10/13 02:13:59;;;;;;;1.70;0.80;;;;;;;8.65;76.30;95855.00;5095500;28;20535;-61
2021/10/13 02:16:27;;;;;;;0.75;0.70;;;;;;;8.63;75.22;95851.59;5095437;28;20106;-61
2021/10/13 02:18:55;;;;;;;0.70;0.70;;;;;;;8.66;74.07;95848.00;5095354;28;20116;-61
2021/10/13 02:21:24;;;;;;;0.60;0.60;;;;;;;8.65;72.90;95849.78;5095294;28;20028;-61
2021/10/13 02:23:50;;;;;;;0.98;0.80;;;;;;;8.68;73.32;95847.06;5095275;28;20058;-61
2021/10/13 02:26:28;;;;;;;0.80;0.80;;;;;;;8.71;72.31;95846.06;5095270;28;20042;-61
2021/10/13 02:29:02;;;;;;;0.70;0.70;;;;;;;8.74;74.02;95850.31;5095368;28;20021;-60
2021/10/13 02:31:27;;;;;;;0.82;0.82;;;;;;;8.75;75.11;95860.66;5095263;28;20039;-60
2021/10/13 02:33:53;;;;;;;0.90;0.68;;;;;;;8.77;73.83;95858.84;5076250;28;20024;-61
2021/10/13 02:36:18;;;;;;;0.68;0.68;;;;;;;8.75;73.39;95858.06;5095061;28;20024;-60
2021/10/13 02:38:44;;;;;;;0.50;0.50;;;;;;;8.79;72.46;95859.63;5094984;28;20089;-60
2021/10/13 02:41:10;;;;;;;0.73;0.73;;;;;;;8.83;73.60;95861.22;5094919;28;20182;-60
2021/10/13 02:43:37;;;;;;;5.63;4.07;;;;;;;8.74;72.88;95865.94;5094966;28;20029;-60
2021/10/13 02:46:13;;;;;;;3.47;1.92;;;;;;;8.82;73.81;95875.16;5094916;28;20040;-61
2021/10/13 02:48:45;;;;;;;1.27;1.17;;;;;;;8.83;72.16;95873.41;5094965;28;20035;-62
2021/10/13 02:51:34;;;;;;;2.13;0.80;;;;;;;8.82;73.23;95876.94;5094764;28;20020;-61
2021/10/13 02:54:09;;;;;;;0.80;0.80;;;;;;;8.83;73.32;95889.91;5094603;28;20038;-62
2021/10/13 02:56:40;;;;;;;1.60;0.80;;;;;;;8.90;72.11;95898.31;5094617;28;20477;-61
2021/10/13 02:59:12;;;;;;;1.27;0.80;;;;;;;8.90;71.86;95911.34;5094732;28;20537;-61
2021/10/13 03:01:41;;;;;;;0.80;0.80;;;;;;;8.93;72.58;95910.38;5094810;28;20031;-61
2021/10/13 03:04:30;;;;;;;1.10;1.00;;;;;;;8.93;73.16;95906.00;5094340;28;20044;-62
2021/10/13 03:07:04;;;;;;;1.38;0.90;;;;;;;8.96;73.08;95910.25;5094464;28;20027;-61
2021/10/13 03:09:34;;;;;;;0.82;0.82;;;;;;;8.98;72.89;95911.03;5094391;28;20020;-61
2021/10/13 03:12:02;;;;;;;0.88;0.88;;;;;;;8.97;72.53;95912.78;5094383;28;20413;-61
2021/10/13 03:14:29;;;;;;;1.15;1.05;;;;;;;9.02;73.30;95915.22;5094351;28;20024;-61
2021/10/13 03:16:56;;;;;;;0.80;0.80;;;;;;;8.97;72.07;95907.56;5094124;28;20020;-61
2021/10/13 03:19:23;;;;;;;1.10;1.00;;;;;;;8.95;71.84;95898.13;5094206;28;20024;-61
2021/10/13 03:21:50;;;;;;;1.20;1.02;;;;;;;8.98;72.09;95909.25;5094209;28;20385;-60
2021/10/13 03:24:17;;;;;;;1.10;1.10;;;;;;;8.99;70.95;95907.50;5094133;28;20035;-61
2021/10/13 03:26:50;;;;;;;1.02;0.90;;;;;;;8.98;72.33;95919.69;5094085;28;20396;-61
2021/10/13 03:29:16;;;;;;;0.90;0.90;;;;;;;9.01;72.68;95918.75;5094013;28;20082;-61
2021/10/13 03:31:42;;;;;;;1.23;1.13;;;;;;;8.97;71.40;95912.78;5094127;28;20030;-61
2021/10/13 03:34:14;;;;;;;1.25;1.15;;;;;;;9.01;73.70;95923.09;5093943;28;20381;-61
2021/10/13 03:36:41;;;;;;;1.30;1.20;;;;;;;9.03;74.27;95924.72;5093907;28;20051;-61
2021/10/13 03:39:08;;;;;;;1.63;1.17;;;;;;;9.05;74.24;95927.25;5093999;28;20500;-61
2021/10/13 03:41:34;;;;;;;1.30;0.98;;;;;;;9.01;74.96;95926.56;5093740;28;20110;-61
2021/10/13 03:44:00;;;;;;;0.88;0.88;;;;;;;9.04;75.52;95929.06;5093580;28;20091;-62
2021/10/13 03:46:26;;;;;;;1.35;1.25;;;;;;;8.98;76.52;95924.09;5093685;28;20020;-61
2021/10/13 03:48:52;;;;;;;1.25;1.15;;;;;;;8.92;75.91;95919.97;5093739;28;20035;-61
2021/10/13 03:51:18;;;;;;;1.88;1.20;;;;;;;8.91;76.09;95925.25;5093639;28;20024;-61
2021/10/13 03:53:44;;;;;;;1.33;1.23;;;;;;;8.91;76.49;95931.28;5093770;28;20099;-61
2021/10/13 03:56:11;;;;;;;1.13;1.02;;;;;;;8.88;75.97;95931.41;5093438;28;20435;-61
2021/10/13 03:58:36;;;;;;;2.90;1.27;;;;;;;8.79;76.99;95930.03;5093662;28;20016;-61
2021/10/13 04:01:02;;;;;;;2.97;0.88;;;;;;;8.78;76.92;95933.56;5093575;28;20492;-61
2021/10/13 04:03:28;;;;;;;1.10;1.10;;;;;;;8.78;76.95;95938.78;5093296;28;20122;-61
2021/10/13 04:05:53;;;;;;;1.45;1.25;;;;;;;8.77;76.67;95937.09;5093461;28;20445;-61
2021/10/13 04:08:19;;;;;;;2.22;1.30;;;;;;;8.74;76.86;95931.13;5093494;28;20393;-61
2021/10/13 04:10:44;;;;;;;1.85;1.20;;;;;;;8.73;77.46;95927.66;5093456;28;20373;-61
2021/10/13 04:13:10;;;;;;;2.33;1.17;;;;;;;8.70;77.42;95936.47;5093460;28;20031;-61
2021/10/13 04:15:36;;;;;;;1.02;1.02;;;;;;;8.71;77.61;95938.19;5093144;28;20024;-61
2021/10/13 04:18:01;;;;;;;1.45;1.35;;;;;;;8.71;77.35;95942.56;5093292;28;20039;-61
2021/10/13 04:20:27;;;;;;;1.23;1.13;;;;;;;8.65;77.21;95948.00;5093294;28;20462;-61
2021/10/13 04:22:52;;;;;;;1.20;1.10;;;;;;;8.54;77.09;95949.28;5093150;28;20024;-61
2021/10/13 04:25:18;;;;;;;1.40;1.30;;;;;;;8.47;76.98;95945.19;5093401;28;20035;-61
2021/10/13 04:27:43;;;;;;;2.22;1.55;;;;;;;8.42;76.82;95954.94;5093178;28;20509;-61
2021/10/13 04:30:09;;;;;;;2.17;0.90;;;;;;;8.32;76.47;95952.69;5093124;28;20024;-61
2021/10/13 04:32:35;;;;;;;0.95;0.93;;;;;;;8.25;76.55;95953.81;5093156;28;20103;-60
2021/10/13 04:35:00;;;;;;;3.05;1.30;;;;;;;8.15;76.43;95960.28;5093079;28;20042;-61
2021/10/13 04:37:26;;;;;;;1.23;1.13;;;;;;;8.03;77.01;95966.81;5093081;28;20017;-61
2021/10/13 04:39:52;;;;;;;3.58;1.45;;;;;;;8.01;76.73;95968.63;5093037;28;20504;-62
2021/10/13 04:42:17;;;;;;;2.40;1.35;;;;;;;7.90;76.82;95969.88;5093065;28;20021;-61
2021/10/13 04:44:43;;;;;;;1.30;1.20;;;;;;;7.91;76.65;95968.09;5093041;28;20480;-61
2021/10/13 04:47:08;;;;;;;2.20;1.40;;;;;;;7.83;76.43;95974.44;5093112;28;20039;-61
2021/10/13 04:49:34;;;;;;;3.20;1.38;;;;;;;7.82;76.16;95977.97;5092917;28;20020;-61
2021/10/13 04:52:00;;;;;;;3.08;1.40;;;;;;;7.73;76.10;95983.50;5092952;28;20042;-60
2021/10/13 04:54:26;;;;;;;1.40;1.30;;;;;;;7.69;76.08;95981.91;5092877;28;20427;-61
2021/10/13 04:56:51;;;;;;;1.40;1.30;;;;;;;7.55;76.23;95998.00;5095961;28;20107;-60
2021/10/13 04:59:17;;;;;;;3.78;1.67;;;;;;;7.54;77.01;95997.16;5097031;28;20026;-61
2021/10/13 05:01:42;;;;;;;4.55;1.33;;;;;;;7.62;77.30;95998.66;5096974;28;20032;-60
2021/10/13 05:04:08;;;;;;;8.27;1.83;;;;;;;7.55;77.00;95998.00;5096683;28;20060;-61
2021/10/13 05:06:34;;;;;;;2.72;1.50;;;;;;;7.55;77.52;96001.47;5096919;28;20016;-61
2021/10/13 05:08:59;;;;;;;2.85;1.90;;;;;;;7.59;77.50;95997.00;5096889;28;20069;-61
2021/10/13 05:11:25;;;;;;;3.55;1.70;;;;;;;7.67;77.56;96007.13;5096800;28;20028;-61
2021/10/13 05:13:50;;;;;;;2.85;1.70;;;;;;;7.98;78.29;96003.47;5096803;28;20107;-61
2021/10/13 05:16:16;;;;;;;1.38;1.27;;;;;;;9.07;74.82;96004.59;5096616;28;20020;-61
2021/10/13 05:18:41;;;;;;;62.47;45.03;;;;;;;9.70;71.67;95999.41;5078384;28;20381;-61
2021/10/13 05:21:07;;;;;;;6.90;4.05;;;;;;;9.84;70.28;95998.78;5096518;28;20028;-61
2021/10/13 05:23:32;;;;;;;4.18;2.70;;;;;;;10.28;69.60;96002.09;5096548;28;20024;-62
2021/10/13 05:25:58;;;;;;;2.00;1.17;;;;;;;11.57;65.80;96011.75;5096554;28;20154;-61
2021/10/13 05:28:24;;;;;;;3.17;1.38;;;;;;;12.94;61.62;96019.47;5096370;28;20484;-61
2021/10/13 05:30:49;;;;;;;4.65;1.05;;;;;;;13.88;58.55;96014.19;5096461;28;20221;-61
2021/10/13 05:33:15;;;;;;;3.15;1.00;;;;;;;15.23;54.44;96012.91;5096278;28;20020;-61
2021/10/13 05:35:40;;;;;;;3.88;0.90;;;;;;;16.53;51.21;96023.59;5096233;28;20024;-62
2021/10/13 05:38:06;;;;;;;0.90;0.90;;;;;;;17.67;48.33;96022.59;5096182;28;20051;-61
2021/10/13 05:40:31;;;;;;;3.17;1.00;;;;;;;18.73;45.53;96025.16;5096156;28;20076;-62
2021/10/13 05:42:57;;;;;;;1.50;1.10;;;;;;;19.64;42.77;96024.06;5096107;28;20024;-63
2021/10/13 05:45:23;;;;;;;0.82;0.82;;;;;;;20.33;41.97;96034.31;5096112;28;20085;-61
2021/10/13 05:47:48;;;;;;;1.70;1.15;;;;;;;21.13;40.07;96038.97;5096041;28;20077;-61
2021/10/13 05:50:14;;;;;;;1.02;0.90;;;;;;;21.93;38.92;96038.06;5095952;28;20078;-61
2021/10/13 05:52:40;;;;;;;1.30;1.20;;;;;;;22.53;37.59;96041.44;5095977;28;20081;-61
2021/10/13 05:55:06;;;;;;;1.95;1.17;;;;;;;22.95;36.71;96039.31;5095831;28;20028;-62
2021/10/13 05:57:32;;;;;;;1.48;0.90;;;;;;;23.40;36.62;96042.16;5095775;28;20035;-62
2021/10/13 06:00:00;;;;;;;2.05;0.90;;;;;;;23.97;34.80;96049.00;5095940;28;20027;-61
2021/10/13 06:02:26;;;;;;;1.73;1.00;;;;;;;24.35;34.33;96057.66;5095659;28;20123;-62
2021/10/13 06:04:52;;;;;;;1.30;1.20;;;;;;;25.14;33.09;96055.06;5095772;28;20107;-61
2021/10/13 06:07:18;;;;;;;1.30;1.02;;;;;;;25.41;31.76;96062.00;5094280;28;20052;-61
2021/10/13 06:09:43;;;;;;;1.30;1.10;;;;;;;25.15;32.86;96064.75;5095624;28;20054;-62
2021/10/13 06:12:09;;;;;;;1.63;1.17;;;;;;;25.21;33.10;96058.75;5095657;28;20525;-63
2021/10/13 06:14:34;;;;;;;1.30;1.13;;;;;;;25.60;31.51;96068.94;5095527;28;20481;-60
2021/10/13 06:17:00;;;;;;;3.17;1.30;;;;;;;25.79;31.19;96071.47;5095449;28;20060;-62
2021/10/13 06:19:26;;;;;;;1.92;1.20;;;;;;;26.05;31.12;96068.63;5095423;28;20016;-61
2021/10/13 06:21:51;;;;;;;1.33;1.23;;;;;;;26.34;30.68;96072.66;5095438;28;20020;-63
2021/10/13 06:24:17;;;;;;;2.65;1.23;;;;;;;27.06;30.12;96086.25;5095322;28;20064;-61
2021/10/13 06:26:42;;;;;;;1.17;1.08;;;;;;;27.62;28.66;96084.47;5095335;28;20024;-61
2021/10/13 06:29:09;;;;;;;1.70;1.42;;;;;;;27.01;28.57;96085.94;5095308;28;20020;-61
2021/10/13 06:31:35;;;;;;;4.63;1.40;;;;;;;26.24;29.70;96088.88;5095167;28;20047;-63
2021/10/13 06:34:01;;;;;;;3.33;1.30;;;;;;;25.09;31.49;96093.84;5095207;28;20466;-61
2021/10/13 06:36:26;;;;;;;1.20;1.10;;;;;;;24.11;32.13;96093.03;5094981;28;20432;-62
2021/10/13 06:38:52;;;;;;;3.35;1.40;;;;;;;23.23;34.73;96096.16;5095111;28;20028;-60
2021/10/13 06:41:18;;;;;;;3.47;1.40;;;;;;;22.53;35.69;96101.84;5094963;28;20024;-61
2021/10/13 06:43:44;;;;;;;3.25;1.58;;;;;;;21.69;37.66;96097.84;5094907;28;20115;-60
2021/10/13 06:46:09;;;;;;;1.17;1.08;;;;;;;21.02;39.08;96100.22;5094973;28;20154;-61
2021/10/13 06:48:35;;;;;;;2.17;1.55;;;;;;;20.38;41.27;96102.97;5094850;28;20485;-61
2021/10/13 06:51:01;;;;;;;2.55;1.50;;;;;;;19.77;42.20;96108.78;5094989;28;20099;-61
2021/10/13 06:53:27;;;;;;;1.40;1.25;;;;;;;19.29;42.99;96102.88;5094682;28;20474;-60
2021/10/13 06:55:54;;;;;;;1.77;1.60;;;;;;;19.10;44.52;96111.47;5094553;28;20036;-60
2021/10/13 06:58:20;;;;;;;1.85;1.50;;;;;;;18.71;43.25;96114.47;5094739;28;20089;-61
2021/10/13 07:00:45;;;;;;;1.70;1.60;;;;;;;17.73;43.73;96111.19;5094764;28;20055;-61
2021/10/13 07:03:11;;;;;;;1.75;1.65;;;;;;;17.13;44.85;96122.53;5094383;28;20051;-60
2021/10/13 07:05:37;;;;;;;2.10;1.65;;;;;;;16.80;47.13;96122.94;5094489;28;20408;-61
2021/10/13 07:08:04;;;;;;;1.52;1.42;;;;;;;16.67;49.01;96130.03;5094469;28;20105;-62
2021/10/13 07:10:29;;;;;;;1.90;1.80;;;;;;;16.48;52.01;96133.97;5094426;28;20032;-62
2021/10/13 07:12:55;;;;;;;3.08;1.90;;;;;;;16.31;50.20;96134.28;5094450;28;20039;-61
2021/10/13 07:15:21;;;;;;;1.83;1.70;;;;;;;15.98;52.56;96145.16;5094243;28;20111;-60
2021/10/13 07:17:48;;;;;;;4.93;2.13;;;;;;;15.94;51.79;96142.81;5094323;28;20024;-61
2021/10/13 07:20:14;;;;;;;2.20;1.85;;;;;;;15.90;52.61;96142.19;5093837;28;20020;-61
2021/10/13 07:22:39;;;;;;;1.83;1.70;;;;;;;16.00;53.11;96150.34;5094143;28;20024;-61
2021/10/13 07:25:07;;;;;;;3.38;1.77;;;;;;;16.08;53.13;96147.19;5094261;28;20027;-61
2021/10/13 07:27:33;;;;;;;3.72;1.83;;;;;;;16.04;52.22;96146.56;5094120;28;20024;-61
2021/10/13 07:30:01;;;;;;;1.83;1.73;;;;;;;16.03;52.15;96151.00;5094126;28;20039;-61
2021/10/13 07:32:32;;;;;;;2.05;1.80;;;;;;;15.97;53.02;96153.19;5093987;28;20028;-62
2021/10/13 07:34:57;;;;;;;2.67;1.95;;;;;;;15.90;52.90;96152.72;5094005;28;20563;-61
2021/10/13 07:37:24;;;;;;;2.80;2.60;;;;;;;15.76;52.48;96145.72;5093925;28;20036;-62
2021/10/13 07:39:50;;;;;;;2.08;1.88;;;;;;;15.75;53.39;96146.66;5093904;28;20104;-61
2021/10/13 07:42:17;;;;;;;2.55;1.90;;;;;;;15.82;52.60;96150.59;5093891;28;20469;-61
2021/10/13 07:44:43;;;;;;;2.80;1.85;;;;;;;15.90;52.79;96148.28;5093826;28;20016;-60
2021/10/13 07:47:09;;;;;;;2.83;2.00;;;;;;;15.96;53.24;96149.72;5093706;28;20016;-61
2021/10/13 07:49:36;;;;;;;1.85;1.75;;;;;;;15.91;48.43;96155.25;5093737;28;20024;-62
2021/10/13 07:52:02;;;;;;;1.70;1.60;;;;;;;15.75;48.21;96155.41;5093782;28;20052;-60
2021/10/13 07:54:28;;;;;;;2.13;1.77;;;;;;;15.82;49.78;96168.19;5093713;28;20020;-61
2021/10/13 07:56:54;;;;;;;2.13;1.90;;;;;;;15.77;52.59;96166.69;5093491;28;20533;-61
2021/10/13 07:59:19;;;;;;;1.90;1.70;;;;;;;15.70;51.89;96161.91;5093590;28;20115;-61
2021/10/13 08:01:45;;;;;;;2.05;1.77;;;;;;;15.63;51.51;96158.84;5093421;28;20035;-61
2021/10/13 08:04:10;;;;;;;2.40;1.90;;;;;;;15.56;50.69;96154.91;5093396;28;20173;-62
2021/10/13 08:06:37;;;;;;;1.90;1.80;;;;;;;15.55;50.20;96159.34;5093531;28;20101;-62
2021/10/13 08:09:03;;;;;;;1.50;1.40;;;;;;;15.77;50.48;96156.16;5093413;28;20028;-61
2021/10/13 08:11:29;;;;;;;2.05;1.85;;;;;;;16.01;51.13;96155.53;5093358;28;20020;-62
2021/10/13 08:13:55;;;;;;;3.60;1.70;;;;;;;16.24;50.66;96168.13;5093380;28;20031;-61
2021/10/13 08:16:20;;;;;;;1.75;1.63;;;;;;;16.34;47.06;96166.56;5093252;28;20477;-62
2021/10/13 08:18:46;;;;;;;1.70;1.40;;;;;;;16.59;48.95;96164.06;5093273;28;20478;-62
2021/10/13 08:21:11;;;;;;;1.50;1.40;;;;;;;16.78;50.24;96159.22;5093427;28;20024;-62
2021/10/13 08:23:37;;;;;;;1.58;1.48;;;;;;;16.96;48.52;96163.28;5093206;28;20012;-62
2021/10/13 08:26:03;;;;;;;2.00;1.48;;;;;;;17.17;49.69;96164.47;5093151;28;20028;-62
2021/10/13 08:28:30;;;;;;;1.63;1.50;;;;;;;17.15;47.31;96166.38;5093206;28;20107;-62
2021/10/13 08:30:56;;;;;;;3.40;1.75;;;;;;;17.23;46.12;96160.53;5092378;28;20020;-62
2021/10/13 08:33:22;;;;;;;1.40;1.30;;;;;;;16.93;46.25;96164.38;5093105;28;20077;-62
2021/10/13 08:35:48;;;;;;;3.40;1.75;;;;;;;16.41;48.30;96164.38;5093076;28;20020;-61
2021/10/13 08:38:15;;;;;;;1.95;1.42;;;;;;;16.32;51.65;96163.19;5093056;28;20174;-62
2021/10/13 08:40:42;;;;;;;1.67;1.58;;;;;;;16.41;51.90;96169.66;5093085;28;20028;-61
2021/10/13 08:43:08;;;;;;;1.80;1.70;;;;;;;16.44;51.31;96172.06;5093011;28;20149;-61
2021/10/13 08:45:37;;;;;;;1.58;1.48;;;;;;;16.40;50.69;96171.44;5093039;28;20103;-62
2021/10/13 08:48:04;;;;;;;2.08;1.55;;;;;;;16.51;50.55;96169.84;5092926;28;20032;-62
2021/10/13 08:50:31;;;;;;;1.83;1.73;;;;;;;16.51;50.64;96164.56;5092895;28;20032;-62
2021/10/13 08:53:06;;;;;;;2.67;1.65;;;;;;;16.45;50.08;96167.63;5092875;28;20016;-61
2021/10/13 08:55:32;;;;;;;2.22;1.38;;;;;;;16.45;50.90;96167.63;5092775;28;20032;-62
2021/10/13 08:58:15;;;;;;;1.90;1.70;;;;;;;16.37;48.33;96170.78;5092970;28;20111;-61
2021/10/13 09:00:43;;;;;;;4.13;1.70;;;;;;;16.35;50.93;96172.69;5092974;28;20028;-61
2021/10/13 09:03:28;;;;;;;1.80;1.70;;;;;;;16.36;52.02;96171.72;5092695;28;20044;-61
2021/10/13 09:05:55;;;;;;;2.70;1.80;;;;;;;16.06;49.76;96176.31;5092906;28;20040;-62
2021/10/13 09:08:20;;;;;;;1.65;1.55;;;;;;;15.75;50.21;96180.94;5092860;28;20553;-62
2021/10/13 09:10:46;;;;;;;6.28;1.85;;;;;;;15.72;51.55;96178.50;5092957;28;20107;-61
2021/10/13 09:13:15;;;;;;;2.97;2.00;;;;;;;15.69;51.70;96174.28;5092781;28;20465;-61
2021/10/13 09:15:48;;;;;;;1.98;1.58;;;;;;;15.75;53.63;96176.50;5092621;28;20051;-61
2021/10/13 09:18:14;;;;;;;2.10;1.90;;;;;;;15.76;52.28;96183.47;5092897;28;20473;-62
2021/10/13 09:20:41;;;;;;;2.42;1.75;;;;;;;15.68;52.67;96184.91;5092707;28;20031;-61
2021/10/13 09:23:28;;;;;;;1.92;1.75;;;;;;;15.38;55.72;96192.06;5092707;28;20020;-61
2021/10/13 09:26:11;;;;;;;2.28;1.98;;;;;;;14.71;56.19;96196.91;5092625;28;20106;-61
2021/10/13 09:28:37;;;;;;;2.83;2.10;;;;;;;14.51;55.33;96198.13;5092818;28;20103;-61
2021/10/13 09:31:14;;;;;;;3.22;2.13;;;;;;;14.15;58.36;96200.19;5092530;28;20046;-62
2021/10/13 09:34:00;;;;;;;4.35;2.22;;;;;;;14.09;60.49;96200.56;5092699;28;20024;-62
2021/10/13 09:37:01;;;;;;;2.40;2.20;;;;;;;14.00;58.52;96197.50;5092546;28;20054;-61
2021/10/13 09:39:29;;;;;;;2.72;2.00;;;;;;;13.73;58.18;96197.31;5085041;28;20485;-62
2021/10/13 09:41:57;;;;;;;2.67;1.90;;;;;;;13.62;59.09;96203.16;5093618;28;20051;-61
2021/10/13 09:44:23;;;;;;;3.50;1.70;;;;;;;13.47;59.59;96207.44;5096168;28;20071;-62
2021/10/13 09:46:50;;;;;;;5.05;2.08;;;;;;;13.24;59.08;96213.03;5096264;28;20026;-62
2021/10/13 09:49:26;;;;;;;1.77;1.67;;;;;;;13.17;59.58;96216.91;5096097;28;20031;-62
2021/10/13 09:51:59;;;;;;;2.83;1.90;;;;;;;13.17;61.78;96218.69;5096012;28;20027;-61
2021/10/13 09:54:26;;;;;;;3.83;1.92;;;;;;;13.33;62.46;96210.84;5095990;28;20020;-61
2021/10/13 09:56:51;;;;;;;1.73;1.50;;;;;;;13.38;63.88;96221.94;5095918;28;20040;-61
2021/10/13 09:59:18;;;;;;;1.30;1.20;;;;;;;13.48;62.34;96222.25;5077819;28;20032;-61
2021/10/13 10:01:58;;;;;;;3.70;1.27;;;;;;;13.58;62.41;96220.03;5095775;28;20355;-61
2021/10/13 10:04:28;;;;;;;3.80;1.90;;;;;;;13.55;60.27;96220.19;5095459;28;20040;-62
2021/10/13 10:06:58;;;;;;;6.10;1.77;;;;;;;13.43;60.80;96216.44;5095779;28;20454;-62
2021/10/13 10:09:26;;;;;;;1.80;1.45;;;;;;;12.96;60.83;96229.38;5095643;28;20032;-61
2021/10/13 10:12:06;;;;;;;3.55;1.70;;;;;;;12.81;62.18;96217.91;5095753;28;20016;-61
2021/10/13 10:14:40;;;;;;;3.22;1.58;;;;;;;12.72;62.10;96224.50;5095522;28;20028;-61
2021/10/13 10:17:07;;;;;;;2.25;1.50;;;;;;;12.75;62.55;96219.94;5095480;28;20048;-61
2021/10/13 10:19:44;;;;;;;2.35;1.80;;;;;;;12.66;60.63;96232.69;5095575;28;20024;-61
2021/10/13 10:22:15;;;;;;;2.38;1.77;;;;;;;12.55;62.13;96225.38;5077409;28;20036;-61
2021/10/13 10:24:52;;;;;;;1.60;1.50;;;;;;;12.46;61.53;96224.06;5095345;28;20036;-61
2021/10/13 10:27:23;;;;;;;1.40;1.30;;;;;;;12.42;62.63;96222.50;5095265;28;20465;-61
2021/10/13 10:30:07;;;;;;;3.72;1.67;;;;;;;12.51;61.29;96222.06;5095294;28;20028;-61
2021/10/13 10:32:33;;;;;;;2.13;1.88;;;;;;;12.53;61.06;96225.47;5095393;28;20024;-61
2021/10/13 10:35:05;;;;;;;2.17;1.98;;;;;;;12.62;60.43;96232.84;5095205;28;20020;-61
2021/10/13 10:37:50;;;;;;;2.20;2.00;;;;;;;12.71;62.54;96236.78;5095046;28;20028;-62
2021/10/13 10:40:21;;;;;;;2.75;2.10;;;;;;;12.81;61.42;96236.28;5095190;28;20032;-61
2021/10/13 10:43:06;;;;;;;2.67;2.00;;;;;;;12.71;61.90;96238.56;5095094;28;20036;-62
2021/10/13 10:45:38;;;;;;;2.60;1.90;;;;;;;12.77;59.80;96230.38;5094978;28;20035;-62
2021/10/13 10:48:09;;;;;;;2.50;1.92;;;;;;;12.81;61.00;96229.28;5094935;28;20449;-61
2021/10/13 10:50:37;;;;;;;2.42;2.22;;;;;;;12.75;59.85;96230.44;5094777;28;20486;-61
2021/10/13 10:53:06;;;;;;;3.05;1.80;;;;;;;12.82;60.74;96230.97;5094267;28;20426;-61
2021/10/13 10:55:38;;;;;;;3.53;1.98;;;;;;;12.96;60.85;96232.88;5094724;28;20031;-61
2021/10/13 10:58:25;;;;;;;2.83;1.92;;;;;;;13.08;59.62;96233.16;5094728;28;20039;-61
2021/10/13 11:00:58;;;;;;;2.15;1.60;;;;;;;13.19;58.73;96240.47;5094676;28;20032;-62
2021/10/13 11:03:26;;;;;;;2.92;1.50;;;;;;;13.21;59.36;96236.81;5094380;28;20494;-62
2021/10/13 11:05:56;;;;;;;4.88;2.25;;;;;;;13.29;59.40;96238.19;5094627;28;20024;-62
2021/10/13 11:08:21;;;;;;;4.88;1.73;;;;;;;13.38;59.92;96238.56;5094451;28;20028;-62
2021/10/13 11:10:47;;;;;;;3.00;1.98;;;;;;;13.34;59.68;96244.88;5094442;28;20108;-61
2021/10/13 11:13:12;;;;;;;3.75;2.25;;;;;;;13.40;58.06;96238.47;5094435;28;20420;-62
2021/10/13 11:15:39;;;;;;;2.55;2.10;;;;;;;13.40;60.56;96228.78;5094270;28;20028;-62
2021/10/13 11:18:13;;;;;;;6.00;2.40;;;;;;;13.52;58.93;96231.72;5094275;28;20024;-61
2021/10/13 11:20:40;;;;;;;3.38;2.20;;;;;;;13.38;57.94;96227.19;5094244;28;20103;-62
2021/10/13 11:23:07;;;;;;;1.90;1.70;;;;;;;13.37;58.64;96223.69;5094216;28;20069;-61
2021/10/13 11:25:33;;;;;;;1.50;1.40;;;;;;;13.42;57.12;96231.34;5094195;28;20035;-61
2021/10/13 11:28:03;;;;;;;3.05;1.63;;;;;;;13.52;58.17;96229.94;5094232;28;20012;-61
2021/10/13 11:30:36;;;;;;;2.75;1.73;;;;;;;13.52;56.62;96221.22;5094106;28;20028;-61
2021/10/13 11:33:07;;;;;;;1.27;1.15;;;;;;;13.52;58.79;96224.66;5094052;28;20073;-60
2021/10/13 11:35:33;;;;;;;3.67;2.33;;;;;;;13.72;57.83;96224.50;5094033;28;20446;-61
2021/10/13 11:37:59;;;;;;;2.55;2.03;;;;;;;13.77;57.67;96225.09;5093920;28;20021;-61
2021/10/13 11:40:26;;;;;;;2.70;1.75;;;;;;;13.97;60.42;96223.13;5093979;28;20031;-62
2021/10/13 11:42:56;;;;;;;2.90;2.13;;;;;;;14.12;59.07;96224.88;5093784;28;20486;-61